Aviation Digital Data Service (ADDS)

Output produced by METARs form (0257 UTC 16 September 2014)
found at http://www.aviationweather.gov/adds/metars/
 
KEWR 160232Z 1603/1706 18008KT P6SM FEW060 BKN150 BKN250 
     FM160600 22005KT P6SM SCT050 OVC150 
     FM161000 VRB03KT P6SM VCSH BKN050 OVC150 
     FM161500 32009KT P6SM BKN070 BKN150 
     FM162000 28008KT P6SM SCT070 SCT150 
     FM170200 35007KT P6SM SKC